sensor_id;sensor_type;location;lat;lon;timestamp;P1;durP1;ratioP1;P2;durP2;ratioP2
2618;SDS011;1319;52.346;13.096;2023-06-10T00:00:33;12.63;;;6.03;;
2618;SDS011;1319;52.346;13.096;2023-06-10T00:02:59;12.23;;;5.80;;
2618;SDS011;1319;52.346;13.096;2023-06-10T00:05:24;17.70;;;6.70;;
2618;SDS011;1319;52.346;13.096;2023-06-10T00:07:49;11.90;;;5.80;;
2618;SDS011;1319;52.346;13.096;2023-06-10T00:10:15;15.37;;;6.03;;
2618;SDS011;1319;52.346;13.096;2023-06-10T00:12:40;12.73;;;5.73;;
2618;SDS011;1319;52.346;13.096;2023-06-10T00:15:07;9.33;;;5.73;;
2618;SDS011;1319;52.346;13.096;2023-06-10T00:17:32;13.33;;;6.13;;
2618;SDS011;1319;52.346;13.096;2023-06-10T00:19:58;17.90;;;5.60;;
2618;SDS011;1319;52.346;13.096;2023-06-10T00:22:23;16.17;;;6.20;;
2618;SDS011;1319;52.346;13.096;2023-06-10T00:24:49;14.20;;;5.83;;
2618;SDS011;1319;52.346;13.096;2023-06-10T00:27:14;11.23;;;6.30;;
2618;SDS011;1319;52.346;13.096;2023-06-10T00:29:39;15.43;;;6.60;;
2618;SDS011;1319;52.346;13.096;2023-06-10T00:32:05;14.23;;;5.80;;
2618;SDS011;1319;52.346;13.096;2023-06-10T00:34:30;9.83;;;5.73;;
2618;SDS011;1319;52.346;13.096;2023-06-10T00:36:55;12.27;;;6.37;;
2618;SDS011;1319;52.346;13.096;2023-06-10T00:39:20;12.53;;;5.77;;
2618;SDS011;1319;52.346;13.096;2023-06-10T00:41:46;10.70;;;5.97;;
2618;SDS011;1319;52.346;13.096;2023-06-10T00:44:11;11.20;;;5.67;;
2618;SDS011;1319;52.346;13.096;2023-06-10T00:46:36;13.50;;;6.13;;
2618;SDS011;1319;52.346;13.096;2023-06-10T00:49:02;11.80;;;6.10;;
2618;SDS011;1319;52.346;13.096;2023-06-10T00:51:27;10.37;;;5.90;;
2618;SDS011;1319;52.346;13.096;2023-06-10T00:53:52;10.07;;;5.67;;
2618;SDS011;1319;52.346;13.096;2023-06-10T00:56:18;13.83;;;6.40;;
2618;SDS011;1319;52.346;13.096;2023-06-10T00:58:43;13.17;;;5.70;;
2618;SDS011;1319;52.346;13.096;2023-06-10T01:01:08;14.67;;;6.30;;
2618;SDS011;1319;52.346;13.096;2023-06-10T01:03:36;11.17;;;6.93;;
2618;SDS011;1319;52.346;13.096;2023-06-10T01:06:14;11.83;;;6.70;;
2618;SDS011;1319;52.346;13.096;2023-06-10T01:11:47;14.93;;;6.60;;
2618;SDS011;1319;52.346;13.096;2023-06-10T01:14:13;18.80;;;7.43;;
2618;SDS011;1319;52.346;13.096;2023-06-10T01:16:39;14.17;;;6.03;;
2618;SDS011;1319;52.346;13.096;2023-06-10T01:19:05;14.87;;;6.50;;
2618;SDS011;1319;52.346;13.096;2023-06-10T01:21:31;13.80;;;6.17;;
2618;SDS011;1319;52.346;13.096;2023-06-10T01:23:57;19.03;;;6.47;;
2618;SDS011;1319;52.346;13.096;2023-06-10T01:26:24;9.77;;;6.07;;
2618;SDS011;1319;52.346;13.096;2023-06-10T01:34:01;14.00;;;6.20;;
2618;SDS011;1319;52.346;13.096;2023-06-10T01:36:27;12.30;;;5.57;;
2618;SDS011;1319;52.346;13.096;2023-06-10T01:38:53;15.30;;;6.00;;
2618;SDS011;1319;52.346;13.096;2023-06-10T01:41:20;11.80;;;6.30;;
2618;SDS011;1319;52.346;13.096;2023-06-10T01:43:46;17.73;;;6.23;;
2618;SDS011;1319;52.346;13.096;2023-06-10T01:46:12;14.83;;;6.60;;
2618;SDS011;1319;52.346;13.096;2023-06-10T01:48:37;11.50;;;6.00;;
2618;SDS011;1319;52.346;13.096;2023-06-10T01:51:03;17.10;;;6.13;;
2618;SDS011;1319;52.346;13.096;2023-06-10T01:53:28;13.77;;;6.10;;
2618;SDS011;1319;52.346;13.096;2023-06-10T01:55:54;11.63;;;6.53;;
2618;SDS011;1319;52.346;13.096;2023-06-10T01:58:19;9.83;;;6.00;;
2618;SDS011;1319;52.346;13.096;2023-06-10T02:00:44;17.73;;;6.40;;
2618;SDS011;1319;52.346;13.096;2023-06-10T02:03:09;15.80;;;6.70;;
2618;SDS011;1319;52.346;13.096;2023-06-10T02:05:35;13.43;;;6.07;;
2618;SDS011;1319;52.346;13.096;2023-06-10T02:08:00;18.07;;;5.80;;
2618;SDS011;1319;52.346;13.096;2023-06-10T02:10:25;16.43;;;6.40;;
2618;SDS011;1319;52.346;13.096;2023-06-10T02:12:50;15.47;;;6.43;;
2618;SDS011;1319;52.346;13.096;2023-06-10T02:15:16;9.73;;;5.87;;
2618;SDS011;1319;52.346;13.096;2023-06-10T02:17:41;12.07;;;6.47;;
2618;SDS011;1319;52.346;13.096;2023-06-10T02:20:06;15.87;;;6.33;;
2618;SDS011;1319;52.346;13.096;2023-06-10T02:22:33;17.37;;;6.50;;
2618;SDS011;1319;52.346;13.096;2023-06-10T02:24:58;12.50;;;6.17;;
2618;SDS011;1319;52.346;13.096;2023-06-10T02:27:24;12.23;;;5.40;;
2618;SDS011;1319;52.346;13.096;2023-06-10T02:29:49;9.90;;;6.20;;
2618;SDS011;1319;52.346;13.096;2023-06-10T02:32:14;15.83;;;6.17;;
2618;SDS011;1319;52.346;13.096;2023-06-10T02:34:40;18.57;;;6.07;;
2618;SDS011;1319;52.346;13.096;2023-06-10T02:37:05;16.57;;;6.10;;
2618;SDS011;1319;52.346;13.096;2023-06-10T02:39:30;12.03;;;5.80;;
2618;SDS011;1319;52.346;13.096;2023-06-10T02:41:55;17.17;;;5.77;;
2618;SDS011;1319;52.346;13.096;2023-06-10T02:44:21;12.00;;;6.00;;
2618;SDS011;1319;52.346;13.096;2023-06-10T02:46:46;9.50;;;5.83;;
2618;SDS011;1319;52.346;13.096;2023-06-10T02:49:11;14.63;;;6.30;;
2618;SDS011;1319;52.346;13.096;2023-06-10T02:51:37;14.70;;;6.50;;
2618;SDS011;1319;52.346;13.096;2023-06-10T02:54:02;10.70;;;6.10;;
2618;SDS011;1319;52.346;13.096;2023-06-10T02:56:27;16.90;;;6.70;;
2618;SDS011;1319;52.346;13.096;2023-06-10T02:58:53;12.97;;;6.17;;
2618;SDS011;1319;52.346;13.096;2023-06-10T03:01:18;11.27;;;5.93;;
2618;SDS011;1319;52.346;13.096;2023-06-10T03:03:44;13.83;;;6.17;;
2618;SDS011;1319;52.346;13.096;2023-06-10T03:06:12;13.17;;;6.17;;
2618;SDS011;1319;52.346;13.096;2023-06-10T03:08:37;19.43;;;6.53;;
2618;SDS011;1319;52.346;13.096;2023-06-10T03:11:03;13.90;;;6.23;;
2618;SDS011;1319;52.346;13.096;2023-06-10T03:13:28;15.00;;;6.53;;
2618;SDS011;1319;52.346;13.096;2023-06-10T03:15:53;11.27;;;6.40;;
2618;SDS011;1319;52.346;13.096;2023-06-10T03:18:19;12.47;;;6.10;;
2618;SDS011;1319;52.346;13.096;2023-06-10T03:20:45;12.50;;;6.50;;
2618;SDS011;1319;52.346;13.096;2023-06-10T03:23:10;16.63;;;6.60;;
2618;SDS011;1319;52.346;13.096;2023-06-10T03:25:35;14.47;;;6.23;;
2618;SDS011;1319;52.346;13.096;2023-06-10T03:28:01;10.87;;;5.97;;
2618;SDS011;1319;52.346;13.096;2023-06-10T03:30:27;12.53;;;6.23;;
2618;SDS011;1319;52.346;13.096;2023-06-10T03:32:52;20.17;;;6.93;;
2618;SDS011;1319;52.346;13.096;2023-06-10T03:35:17;13.67;;;6.40;;
2618;SDS011;1319;52.346;13.096;2023-06-10T03:37:43;14.20;;;6.13;;
2618;SDS011;1319;52.346;13.096;2023-06-10T03:40:08;16.00;;;6.47;;
2618;SDS011;1319;52.346;13.096;2023-06-10T03:42:33;20.93;;;6.77;;
2618;SDS011;1319;52.346;13.096;2023-06-10T03:44:59;12.73;;;6.43;;
2618;SDS011;1319;52.346;13.096;2023-06-10T03:47:24;22.07;;;6.67;;
2618;SDS011;1319;52.346;13.096;2023-06-10T03:49:49;16.13;;;6.83;;
2618;SDS011;1319;52.346;13.096;2023-06-10T03:52:14;11.83;;;6.30;;
2618;SDS011;1319;52.346;13.096;2023-06-10T03:54:40;14.67;;;6.50;;
2618;SDS011;1319;52.346;13.096;2023-06-10T03:57:05;11.87;;;6.53;;
2618;SDS011;1319;52.346;13.096;2023-06-10T03:59:31;18.43;;;6.80;;
2618;SDS011;1319;52.346;13.096;2023-06-10T04:01:56;20.73;;;6.63;;
2618;SDS011;1319;52.346;13.096;2023-06-10T04:04:21;20.57;;;7.10;;
2618;SDS011;1319;52.346;13.096;2023-06-10T04:06:46;14.67;;;6.17;;
2618;SDS011;1319;52.346;13.096;2023-06-10T04:09:13;17.23;;;6.97;;
2618;SDS011;1319;52.346;13.096;2023-06-10T04:11:38;14.27;;;6.70;;
2618;SDS011;1319;52.346;13.096;2023-06-10T04:14:03;16.00;;;6.23;;
2618;SDS011;1319;52.346;13.096;2023-06-10T04:16:29;13.90;;;6.50;;
2618;SDS011;1319;52.346;13.096;2023-06-10T04:18:54;14.03;;;6.60;;
2618;SDS011;1319;52.346;13.096;2023-06-10T04:21:20;14.90;;;6.90;;
2618;SDS011;1319;52.346;13.096;2023-06-10T04:23:46;15.60;;;7.13;;
2618;SDS011;1319;52.346;13.096;2023-06-10T04:26:11;13.27;;;7.20;;
2618;SDS011;1319;52.346;13.096;2023-06-10T04:28:37;18.47;;;6.77;;
2618;SDS011;1319;52.346;13.096;2023-06-10T04:31:02;14.77;;;6.70;;
2618;SDS011;1319;52.346;13.096;2023-06-10T04:33:29;17.93;;;6.83;;
2618;SDS011;1319;52.346;13.096;2023-06-10T04:35:54;17.10;;;6.90;;
2618;SDS011;1319;52.346;13.096;2023-06-10T04:38:19;16.00;;;6.87;;
2618;SDS011;1319;52.346;13.096;2023-06-10T04:40:45;20.40;;;7.13;;
2618;SDS011;1319;52.346;13.096;2023-06-10T04:43:11;15.00;;;6.70;;
2618;SDS011;1319;52.346;13.096;2023-06-10T04:45:36;11.13;;;6.17;;
2618;SDS011;1319;52.346;13.096;2023-06-10T04:48:01;18.37;;;6.57;;
2618;SDS011;1319;52.346;13.096;2023-06-10T04:50:27;16.60;;;6.97;;
2618;SDS011;1319;52.346;13.096;2023-06-10T04:52:52;19.67;;;7.30;;
2618;SDS011;1319;52.346;13.096;2023-06-10T04:55:17;14.77;;;6.43;;
2618;SDS011;1319;52.346;13.096;2023-06-10T04:57:42;12.70;;;6.53;;
2618;SDS011;1319;52.346;13.096;2023-06-10T05:00:08;19.70;;;6.93;;
2618;SDS011;1319;52.346;13.096;2023-06-10T05:02:33;15.10;;;6.60;;
2618;SDS011;1319;52.346;13.096;2023-06-10T05:04:59;16.10;;;6.80;;
2618;SDS011;1319;52.346;13.096;2023-06-10T05:07:24;13.93;;;6.93;;
2618;SDS011;1319;52.346;13.096;2023-06-10T05:09:49;16.37;;;6.63;;
2618;SDS011;1319;52.346;13.096;2023-06-10T05:12:14;14.93;;;6.77;;
2618;SDS011;1319;52.346;13.096;2023-06-10T05:14:39;14.03;;;6.80;;
2618;SDS011;1319;52.346;13.096;2023-06-10T05:17:05;12.43;;;7.30;;
2618;SDS011;1319;52.346;13.096;2023-06-10T05:19:33;19.07;;;6.50;;
2618;SDS011;1319;52.346;13.096;2023-06-10T05:22:00;16.70;;;7.23;;
2618;SDS011;1319;52.346;13.096;2023-06-10T05:24:25;11.17;;;6.90;;
2618;SDS011;1319;52.346;13.096;2023-06-10T05:26:51;15.23;;;6.83;;
2618;SDS011;1319;52.346;13.096;2023-06-10T05:29:16;15.27;;;6.97;;
2618;SDS011;1319;52.346;13.096;2023-06-10T05:31:41;11.33;;;7.07;;
2618;SDS011;1319;52.346;13.096;2023-06-10T05:34:07;15.53;;;6.73;;
2618;SDS011;1319;52.346;13.096;2023-06-10T05:36:32;15.30;;;6.80;;
2618;SDS011;1319;52.346;13.096;2023-06-10T05:38:57;9.43;;;6.57;;
2618;SDS011;1319;52.346;13.096;2023-06-10T05:41:22;14.40;;;7.33;;
2618;SDS011;1319;52.346;13.096;2023-06-10T05:43:48;11.17;;;6.73;;
2618;SDS011;1319;52.346;13.096;2023-06-10T05:46:13;18.70;;;7.40;;
2618;SDS011;1319;52.346;13.096;2023-06-10T05:48:39;15.33;;;7.13;;
2618;SDS011;1319;52.346;13.096;2023-06-10T05:51:04;13.97;;;7.60;;
2618;SDS011;1319;52.346;13.096;2023-06-10T05:53:29;13.47;;;6.87;;
2618;SDS011;1319;52.346;13.096;2023-06-10T05:55:55;13.77;;;7.53;;
2618;SDS011;1319;52.346;13.096;2023-06-10T05:58:22;18.90;;;7.27;;
2618;SDS011;1319;52.346;13.096;2023-06-10T06:00:47;14.87;;;7.80;;
2618;SDS011;1319;52.346;13.096;2023-06-10T06:03:13;12.17;;;6.97;;
2618;SDS011;1319;52.346;13.096;2023-06-10T06:05:38;16.50;;;7.57;;
2618;SDS011;1319;52.346;13.096;2023-06-10T06:08:04;18.63;;;7.67;;
2618;SDS011;1319;52.346;13.096;2023-06-10T06:10:29;14.50;;;7.30;;
2618;SDS011;1319;52.346;13.096;2023-06-10T06:12:54;11.47;;;6.97;;
2618;SDS011;1319;52.346;13.096;2023-06-10T06:15:20;17.67;;;7.63;;
2618;SDS011;1319;52.346;13.096;2023-06-10T06:17:45;14.37;;;7.43;;
2618;SDS011;1319;52.346;13.096;2023-06-10T06:20:10;13.40;;;7.57;;
2618;SDS011;1319;52.346;13.096;2023-06-10T06:22:35;13.40;;;7.67;;
2618;SDS011;1319;52.346;13.096;2023-06-10T06:25:00;11.33;;;7.33;;
2618;SDS011;1319;52.346;13.096;2023-06-10T06:27:26;13.57;;;7.63;;
2618;SDS011;1319;52.346;13.096;2023-06-10T06:29:51;13.00;;;7.00;;
2618;SDS011;1319;52.346;13.096;2023-06-10T06:32:16;11.80;;;7.07;;
2618;SDS011;1319;52.346;13.096;2023-06-10T06:34:42;16.67;;;7.37;;
2618;SDS011;1319;52.346;13.096;2023-06-10T06:37:07;15.67;;;7.03;;
2618;SDS011;1319;52.346;13.096;2023-06-10T06:39:32;15.87;;;7.30;;
2618;SDS011;1319;52.346;13.096;2023-06-10T06:41:57;13.20;;;7.10;;
2618;SDS011;1319;52.346;13.096;2023-06-10T06:44:23;14.63;;;7.40;;
2618;SDS011;1319;52.346;13.096;2023-06-10T06:46:48;13.43;;;8.03;;
2618;SDS011;1319;52.346;13.096;2023-06-10T06:49:13;12.37;;;7.63;;
2618;SDS011;1319;52.346;13.096;2023-06-10T06:51:39;11.57;;;7.47;;
2618;SDS011;1319;52.346;13.096;2023-06-10T06:54:04;14.47;;;7.30;;
2618;SDS011;1319;52.346;13.096;2023-06-10T06:56:30;15.60;;;7.10;;
2618;SDS011;1319;52.346;13.096;2023-06-10T06:58:55;20.87;;;6.73;;
2618;SDS011;1319;52.346;13.096;2023-06-10T07:01:21;11.77;;;6.73;;
2618;SDS011;1319;52.346;13.096;2023-06-10T07:03:46;10.73;;;6.87;;
2618;SDS011;1319;52.346;13.096;2023-06-10T07:06:12;15.30;;;7.20;;
2618;SDS011;1319;52.346;13.096;2023-06-10T07:08:37;10.93;;;6.70;;
2618;SDS011;1319;52.346;13.096;2023-06-10T07:11:02;14.43;;;7.03;;
2618;SDS011;1319;52.346;13.096;2023-06-10T07:13:27;15.47;;;7.60;;
2618;SDS011;1319;52.346;13.096;2023-06-10T07:15:53;12.90;;;7.00;;
2618;SDS011;1319;52.346;13.096;2023-06-10T07:18:18;18.37;;;7.07;;
2618;SDS011;1319;52.346;13.096;2023-06-10T07:20:43;13.07;;;7.00;;
2618;SDS011;1319;52.346;13.096;2023-06-10T07:23:08;11.27;;;6.93;;
2618;SDS011;1319;52.346;13.096;2023-06-10T07:25:34;13.93;;;6.77;;
2618;SDS011;1319;52.346;13.096;2023-06-10T07:27:59;13.00;;;7.30;;
2618;SDS011;1319;52.346;13.096;2023-06-10T07:30:24;15.97;;;7.80;;
2618;SDS011;1319;52.346;13.096;2023-06-10T07:32:50;10.10;;;7.23;;
2618;SDS011;1319;52.346;13.096;2023-06-10T07:35:16;15.27;;;7.70;;
2618;SDS011;1319;52.346;13.096;2023-06-10T07:37:42;11.90;;;7.20;;
2618;SDS011;1319;52.346;13.096;2023-06-10T07:40:07;15.50;;;7.43;;
2618;SDS011;1319;52.346;13.096;2023-06-10T07:42:33;14.97;;;7.80;;
2618;SDS011;1319;52.346;13.096;2023-06-10T07:44:59;19.87;;;7.90;;
2618;SDS011;1319;52.346;13.096;2023-06-10T07:47:24;13.40;;;7.53;;
2618;SDS011;1319;52.346;13.096;2023-06-10T07:49:49;13.90;;;7.63;;
2618;SDS011;1319;52.346;13.096;2023-06-10T07:52:15;16.53;;;7.87;;
2618;SDS011;1319;52.346;13.096;2023-06-10T07:54:40;12.93;;;7.40;;
2618;SDS011;1319;52.346;13.096;2023-06-10T07:57:05;14.37;;;7.57;;
2618;SDS011;1319;52.346;13.096;2023-06-10T07:59:32;14.13;;;8.23;;
2618;SDS011;1319;52.346;13.096;2023-06-10T08:01:57;15.00;;;8.00;;
2618;SDS011;1319;52.346;13.096;2023-06-10T08:04:22;14.43;;;7.50;;
2618;SDS011;1319;52.346;13.096;2023-06-10T08:06:47;12.93;;;7.67;;
2618;SDS011;1319;52.346;13.096;2023-06-10T08:09:13;9.43;;;7.30;;
2618;SDS011;1319;52.346;13.096;2023-06-10T08:11:38;12.63;;;7.60;;
2618;SDS011;1319;52.346;13.096;2023-06-10T08:14:03;15.23;;;7.95;;
2618;SDS011;1319;52.346;13.096;2023-06-10T08:16:28;11.82;;;7.43;;
2618;SDS011;1319;52.346;13.096;2023-06-10T08:18:54;16.08;;;7.78;;
2618;SDS011;1319;52.346;13.096;2023-06-10T08:21:19;14.75;;;7.97;;
2618;SDS011;1319;52.346;13.096;2023-06-10T08:23:44;13.25;;;7.50;;
2618;SDS011;1319;52.346;13.096;2023-06-10T08:26:09;10.70;;;7.20;;
2618;SDS011;1319;52.346;13.096;2023-06-10T08:28:35;12.82;;;7.78;;
2618;SDS011;1319;52.346;13.096;2023-06-10T08:31:00;13.48;;;7.32;;
2618;SDS011;1319;52.346;13.096;2023-06-10T08:33:25;14.40;;;7.43;;
2618;SDS011;1319;52.346;13.096;2023-06-10T08:35:50;11.68;;;7.80;;
2618;SDS011;1319;52.346;13.096;2023-06-10T08:38:15;19.35;;;7.63;;
2618;SDS011;1319;52.346;13.096;2023-06-10T08:40:41;18.45;;;7.53;;
2618;SDS011;1319;52.346;13.096;2023-06-10T08:43:07;17.20;;;7.45;;
2618;SDS011;1319;52.346;13.096;2023-06-10T08:45:33;16.85;;;7.68;;
2618;SDS011;1319;52.346;13.096;2023-06-10T08:48:05;13.75;;;6.80;;
2618;SDS011;1319;52.346;13.096;2023-06-10T08:50:36;11.90;;;7.43;;
2618;SDS011;1319;52.346;13.096;2023-06-10T08:53:04;17.48;;;7.63;;
2618;SDS011;1319;52.346;13.096;2023-06-10T08:55:30;11.73;;;7.38;;
2618;SDS011;1319;52.346;13.096;2023-06-10T08:57:57;13.88;;;7.55;;
2618;SDS011;1319;52.346;13.096;2023-06-10T09:00:22;11.30;;;7.28;;
2618;SDS011;1319;52.346;13.096;2023-06-10T09:02:47;12.63;;;7.50;;
2618;SDS011;1319;52.346;13.096;2023-06-10T09:05:13;11.88;;;7.10;;
2618;SDS011;1319;52.346;13.096;2023-06-10T09:07:38;10.93;;;7.38;;
2618;SDS011;1319;52.346;13.096;2023-06-10T09:10:04;15.23;;;7.63;;
2618;SDS011;1319;52.346;13.096;2023-06-10T09:12:32;9.60;;;6.78;;
2618;SDS011;1319;52.346;13.096;2023-06-10T09:14:57;14.82;;;7.32;;
2618;SDS011;1319;52.346;13.096;2023-06-10T09:17:22;12.15;;;7.13;;
2618;SDS011;1319;52.346;13.096;2023-06-10T09:19:47;11.38;;;6.97;;
2618;SDS011;1319;52.346;13.096;2023-06-10T09:22:13;13.82;;;7.20;;
2618;SDS011;1319;52.346;13.096;2023-06-10T09:24:39;17.17;;;6.90;;
2618;SDS011;1319;52.346;13.096;2023-06-10T09:27:06;15.52;;;6.88;;
2618;SDS011;1319;52.346;13.096;2023-06-10T09:29:51;24.30;;;7.78;;
2618;SDS011;1319;52.346;13.096;2023-06-10T09:32:17;9.35;;;7.00;;
2618;SDS011;1319;52.346;13.096;2023-06-10T09:34:42;13.70;;;7.20;;
2618;SDS011;1319;52.346;13.096;2023-06-10T09:37:08;13.63;;;6.93;;
2618;SDS011;1319;52.346;13.096;2023-06-10T09:39:37;10.98;;;7.45;;
2618;SDS011;1319;52.346;13.096;2023-06-10T09:42:02;15.60;;;7.68;;
2618;SDS011;1319;52.346;13.096;2023-06-10T09:44:40;13.23;;;7.30;;
2618;SDS011;1319;52.346;13.096;2023-06-10T09:47:05;13.48;;;7.30;;
2618;SDS011;1319;52.346;13.096;2023-06-10T09:49:30;16.88;;;7.88;;
2618;SDS011;1319;52.346;13.096;2023-06-10T09:51:56;15.73;;;7.75;;
2618;SDS011;1319;52.346;13.096;2023-06-10T09:54:21;13.82;;;7.38;;
2618;SDS011;1319;52.346;13.096;2023-06-10T09:56:47;17.02;;;7.15;;
2618;SDS011;1319;52.346;13.096;2023-06-10T09:59:12;12.60;;;7.45;;
2618;SDS011;1319;52.346;13.096;2023-06-10T10:01:37;16.85;;;7.35;;
2618;SDS011;1319;52.346;13.096;2023-06-10T10:04:03;12.63;;;7.60;;
2618;SDS011;1319;52.346;13.096;2023-06-10T10:06:29;14.07;;;7.35;;
2618;SDS011;1319;52.346;13.096;2023-06-10T10:08:54;13.77;;;6.97;;
2618;SDS011;1319;52.346;13.096;2023-06-10T10:11:20;13.18;;;7.38;;
2618;SDS011;1319;52.346;13.096;2023-06-10T10:13:48;11.88;;;7.38;;
2618;SDS011;1319;52.346;13.096;2023-06-10T10:16:17;12.68;;;6.65;;
2618;SDS011;1319;52.346;13.096;2023-06-10T10:19:04;10.25;;;7.15;;
2618;SDS011;1319;52.346;13.096;2023-06-10T10:21:32;17.05;;;7.72;;
2618;SDS011;1319;52.346;13.096;2023-06-10T10:24:16;16.58;;;7.90;;
2618;SDS011;1319;52.346;13.096;2023-06-10T10:26:42;13.27;;;7.38;;
2618;SDS011;1319;52.346;13.096;2023-06-10T10:29:14;12.02;;;7.50;;
2618;SDS011;1319;52.346;13.096;2023-06-10T10:31:41;9.20;;;7.15;;
2618;SDS011;1319;52.346;13.096;2023-06-10T10:34:09;15.27;;;7.10;;
2618;SDS011;1319;52.346;13.096;2023-06-10T10:36:34;11.68;;;7.05;;
2618;SDS011;1319;52.346;13.096;2023-06-10T10:39:01;10.45;;;7.47;;
2618;SDS011;1319;52.346;13.096;2023-06-10T10:41:28;16.02;;;6.93;;
2618;SDS011;1319;52.346;13.096;2023-06-10T10:43:54;13.70;;;7.10;;
2618;SDS011;1319;52.346;13.096;2023-06-10T10:46:20;8.73;;;6.75;;
2618;SDS011;1319;52.346;13.096;2023-06-10T10:48:45;9.93;;;7.07;;
2618;SDS011;1319;52.346;13.096;2023-06-10T10:51:11;8.50;;;7.15;;
2618;SDS011;1319;52.346;13.096;2023-06-10T10:53:37;13.82;;;7.32;;
2618;SDS011;1319;52.346;13.096;2023-06-10T10:56:12;15.23;;;7.03;;
2618;SDS011;1319;52.346;13.096;2023-06-10T10:58:38;13.65;;;7.07;;
2618;SDS011;1319;52.346;13.096;2023-06-10T11:01:10;15.00;;;6.93;;
2618;SDS011;1319;52.346;13.096;2023-06-10T11:03:41;17.83;;;7.50;;
2618;SDS011;1319;52.346;13.096;2023-06-10T11:06:11;10.57;;;7.00;;
2618;SDS011;1319;52.346;13.096;2023-06-10T11:11:17;13.73;;;6.57;;
2618;SDS011;1319;52.346;13.096;2023-06-10T11:13:43;12.20;;;7.00;;
2618;SDS011;1319;52.346;13.096;2023-06-10T11:16:22;9.52;;;7.18;;
2618;SDS011;1319;52.346;13.096;2023-06-10T11:18:53;14.77;;;6.80;;
2618;SDS011;1319;52.346;13.096;2023-06-10T11:21:18;14.02;;;6.95;;
2618;SDS011;1319;52.346;13.096;2023-06-10T11:23:43;14.82;;;7.00;;
2618;SDS011;1319;52.346;13.096;2023-06-10T11:28:37;11.38;;;6.03;;
2618;SDS011;1319;52.346;13.096;2023-06-10T11:31:02;11.13;;;6.85;;
2618;SDS011;1319;52.346;13.096;2023-06-10T11:33:28;13.68;;;6.90;;
2618;SDS011;1319;52.346;13.096;2023-06-10T11:35:53;10.75;;;6.63;;
2618;SDS011;1319;52.346;13.096;2023-06-10T11:38:19;9.73;;;6.32;;
2618;SDS011;1319;52.346;13.096;2023-06-10T11:40:50;12.95;;;6.60;;
2618;SDS011;1319;52.346;13.096;2023-06-10T11:43:19;12.18;;;6.63;;
2618;SDS011;1319;52.346;13.096;2023-06-10T11:45:44;17.58;;;6.32;;
2618;SDS011;1319;52.346;13.096;2023-06-10T11:48:10;10.50;;;6.28;;
2618;SDS011;1319;52.346;13.096;2023-06-10T11:50:35;9.73;;;6.20;;
2618;SDS011;1319;52.346;13.096;2023-06-10T11:53:01;12.57;;;6.05;;
2618;SDS011;1319;52.346;13.096;2023-06-10T11:55:46;7.57;;;5.95;;
2618;SDS011;1319;52.346;13.096;2023-06-10T12:00:43;11.80;;;6.28;;
2618;SDS011;1319;52.346;13.096;2023-06-10T12:03:09;8.88;;;6.55;;
2618;SDS011;1319;52.346;13.096;2023-06-10T12:05:34;7.25;;;6.35;;
2618;SDS011;1319;52.346;13.096;2023-06-10T12:08:09;12.48;;;7.10;;
2618;SDS011;1319;52.346;13.096;2023-06-10T12:10:39;15.20;;;10.23;;
2618;SDS011;1319;52.346;13.096;2023-06-10T12:13:04;12.50;;;6.80;;
2618;SDS011;1319;52.346;13.096;2023-06-10T12:15:30;12.80;;;8.70;;
2618;SDS011;1319;52.346;13.096;2023-06-10T12:17:55;18.67;;;11.95;;
2618;SDS011;1319;52.346;13.096;2023-06-10T12:20:25;23.58;;;12.18;;
2618;SDS011;1319;52.346;13.096;2023-06-10T12:22:50;9.32;;;6.78;;
2618;SDS011;1319;52.346;13.096;2023-06-10T12:25:15;11.10;;;9.07;;
2618;SDS011;1319;52.346;13.096;2023-06-10T12:27:49;20.15;;;8.10;;
2618;SDS011;1319;52.346;13.096;2023-06-10T12:30:18;11.68;;;7.57;;
2618;SDS011;1319;52.346;13.096;2023-06-10T12:32:44;10.02;;;6.72;;
2618;SDS011;1319;52.346;13.096;2023-06-10T12:35:10;11.52;;;7.03;;
2618;SDS011;1319;52.346;13.096;2023-06-10T12:37:37;8.80;;;6.55;;
2618;SDS011;1319;52.346;13.096;2023-06-10T12:40:03;11.85;;;6.82;;
2618;SDS011;1319;52.346;13.096;2023-06-10T12:42:30;10.57;;;6.47;;
2618;SDS011;1319;52.346;13.096;2023-06-10T12:44:56;7.10;;;5.72;;
2618;SDS011;1319;52.346;13.096;2023-06-10T12:47:31;9.77;;;6.57;;
2618;SDS011;1319;52.346;13.096;2023-06-10T12:49:58;8.25;;;6.15;;
2618;SDS011;1319;52.346;13.096;2023-06-10T12:52:24;8.98;;;5.97;;
2618;SDS011;1319;52.346;13.096;2023-06-10T12:54:49;9.13;;;5.90;;
2618;SDS011;1319;52.346;13.096;2023-06-10T12:57:14;14.25;;;6.22;;
2618;SDS011;1319;52.346;13.096;2023-06-10T12:59:39;11.93;;;6.15;;
2618;SDS011;1319;52.346;13.096;2023-06-10T13:02:05;7.82;;;5.10;;
2618;SDS011;1319;52.346;13.096;2023-06-10T13:04:30;8.27;;;5.50;;
2618;SDS011;1319;52.346;13.096;2023-06-10T13:06:55;7.25;;;5.07;;
2618;SDS011;1319;52.346;13.096;2023-06-10T13:09:21;13.20;;;5.70;;
2618;SDS011;1319;52.346;13.096;2023-06-10T13:11:46;14.48;;;5.57;;
2618;SDS011;1319;52.346;13.096;2023-06-10T13:14:11;7.45;;;5.28;;
2618;SDS011;1319;52.346;13.096;2023-06-10T13:16:37;14.38;;;5.93;;
2618;SDS011;1319;52.346;13.096;2023-06-10T13:19:03;6.55;;;5.75;;
2618;SDS011;1319;52.346;13.096;2023-06-10T13:21:30;11.27;;;5.50;;
2618;SDS011;1319;52.346;13.096;2023-06-10T13:23:55;8.10;;;6.10;;
2618;SDS011;1319;52.346;13.096;2023-06-10T13:26:20;6.68;;;5.50;;
2618;SDS011;1319;52.346;13.096;2023-06-10T13:28:46;5.90;;;5.30;;
2618;SDS011;1319;52.346;13.096;2023-06-10T13:31:11;6.32;;;5.63;;
2618;SDS011;1319;52.346;13.096;2023-06-10T13:33:37;5.97;;;5.38;;
2618;SDS011;1319;52.346;13.096;2023-06-10T13:36:02;5.85;;;5.30;;
2618;SDS011;1319;52.346;13.096;2023-06-10T13:38:28;7.63;;;5.60;;
2618;SDS011;1319;52.346;13.096;2023-06-10T13:40:53;8.75;;;6.03;;
2618;SDS011;1319;52.346;13.096;2023-06-10T13:43:18;7.45;;;5.63;;
2618;SDS011;1319;52.346;13.096;2023-06-10T13:45:43;16.83;;;6.30;;
2618;SDS011;1319;52.346;13.096;2023-06-10T13:48:10;10.18;;;5.93;;
2618;SDS011;1319;52.346;13.096;2023-06-10T13:50:35;11.25;;;6.28;;
2618;SDS011;1319;52.346;13.096;2023-06-10T13:53:00;9.88;;;6.22;;
2618;SDS011;1319;52.346;13.096;2023-06-10T13:55:25;8.63;;;6.68;;
2618;SDS011;1319;52.346;13.096;2023-06-10T13:57:51;7.25;;;5.80;;
2618;SDS011;1319;52.346;13.096;2023-06-10T14:00:16;6.90;;;6.15;;
2618;SDS011;1319;52.346;13.096;2023-06-10T14:02:42;7.30;;;5.93;;
2618;SDS011;1319;52.346;13.096;2023-06-10T14:05:07;7.47;;;6.35;;
2618;SDS011;1319;52.346;13.096;2023-06-10T14:07:33;7.25;;;5.80;;
2618;SDS011;1319;52.346;13.096;2023-06-10T14:09:58;8.20;;;6.43;;
2618;SDS011;1319;52.346;13.096;2023-06-10T14:12:23;8.80;;;6.25;;
2618;SDS011;1319;52.346;13.096;2023-06-10T14:14:48;10.43;;;6.38;;
2618;SDS011;1319;52.346;13.096;2023-06-10T14:17:14;6.90;;;6.30;;
2618;SDS011;1319;52.346;13.096;2023-06-10T14:19:39;7.47;;;5.80;;
2618;SDS011;1319;52.346;13.096;2023-06-10T14:22:05;8.13;;;6.47;;
2618;SDS011;1319;52.346;13.096;2023-06-10T14:24:31;16.52;;;6.28;;
2618;SDS011;1319;52.346;13.096;2023-06-10T14:26:57;7.97;;;5.95;;
2618;SDS011;1319;52.346;13.096;2023-06-10T14:29:23;6.32;;;5.55;;
2618;SDS011;1319;52.346;13.096;2023-06-10T14:31:48;7.95;;;5.90;;
2618;SDS011;1319;52.346;13.096;2023-06-10T14:34:13;7.55;;;5.72;;
2618;SDS011;1319;52.346;13.096;2023-06-10T14:36:38;14.02;;;6.80;;
2618;SDS011;1319;52.346;13.096;2023-06-10T14:39:04;21.97;;;7.07;;
2618;SDS011;1319;52.346;13.096;2023-06-10T14:41:29;37.85;;;7.65;;
2618;SDS011;1319;52.346;13.096;2023-06-10T14:43:54;33.80;;;8.10;;
2618;SDS011;1319;52.346;13.096;2023-06-10T14:46:19;26.15;;;7.63;;
2618;SDS011;1319;52.346;13.096;2023-06-10T14:48:46;14.48;;;7.25;;
2618;SDS011;1319;52.346;13.096;2023-06-10T14:51:11;10.10;;;7.25;;
2618;SDS011;1319;52.346;13.096;2023-06-10T14:53:36;12.93;;;7.93;;
2618;SDS011;1319;52.346;13.096;2023-06-10T14:56:01;10.35;;;7.55;;
2618;SDS011;1319;52.346;13.096;2023-06-10T14:58:26;17.67;;;7.68;;